KCYS/CYS METAR and TAF weather

Enter ICAO airport designator
Station Type Date Time Source
KCYS METAR 2019/12/13 21:53 UTC NOAA

KCYS 132153Z 29024G36KT 10SM CLR 01/M11 A2991 RMK AO2 PK WND 28042/2104 SLP135 T00111111


Station Type Date Time Source
KCYS Decoded METAR 2019/12/13 21:53 UTC NOAA

CHEYENNE AIRPORT, WY, United States (KCYS) 41-09N 104-48W 1865M
Dec 13, 2019 - 04:53 PM EST / 2019.12.13 2153 UTC
Wind: from the WNW (290 degrees) at 28 MPH (24 KT) gusting to 41 MPH (36 KT):0
Visibility: 10 mile(s):0
Sky conditions: clear
Temperature: 34.0 F (1.1 C)
Windchill: 21 F (-6 C):1
Dew Point: 12.0 F (-11.1 C)
Relative Humidity: 39%
Pressure (altimeter): 29.91 in. Hg (1012 hPa)
ob: KCYS 132153Z 29024G36KT 10SM CLR 01/M11 A2991 RMK AO2 PK WND 28042/2104 SLP135 T00111111
cycle: 22

Station Type Date Time Source
KCYS TAF 2019/12/13 18:22 UTC NOAA

TAF KCYS 131720Z 1318/1418 31030G45KT P6SM SCT100
FM140000 32015G25KT P6SM SCT100
FM140200 29009KT P6SM BKN100
FM141200 18009KT 3SM -SN OVC025

Example: see airport list